Time;durP1;ratioP1;P1;durP2;ratioP2;P2;SDS_P1;SDS_P2;PMS_P1;PMS_P2;Temp;Humidity;BMP_temperature;BMP_pressure;BME280_temperature;BME280_humidity;BME280_pressure;Samples;Min_cycle;Max_cycle;Signal;HPM_P1;HPM_P2
2021/01/28 07:05:39;;;;;;;12.23;8.77;;;;;;;1.84;51.62;99152.75;5099557;22;817161;-77
2021/01/28 07:08:23;;;;;;;16.97;11.57;;;;;;;1.86;51.63;99160.44;5120802;28;20055;-76
2021/01/28 07:10:48;;;;;;;17.37;11.30;;;;;;;1.68;52.26;99139.41;5100515;28;20089;-76
2021/01/28 07:13:20;;;;;;;19.47;12.33;;;;;;;1.81;52.04;99153.03;5103438;28;20019;-76
2021/01/28 07:15:56;;;;;;;18.42;11.23;;;;;;;1.89;51.21;99163.59;5134644;27;20019;-76
2021/01/28 07:18:29;;;;;;;15.63;10.77;;;;;;;1.92;51.58;99165.09;5096442;28;20042;-77
2021/01/28 07:21:03;;;;;;;26.83;14.23;;;;;;;1.89;50.87;99178.38;5115604;28;20076;-76
2021/01/28 07:23:38;;;;;;;18.80;11.80;;;;;;;1.83;51.99;99173.72;5128633;22;20052;-76
2021/01/28 07:26:20;;;;;;;17.40;11.13;;;;;;;1.98;51.77;99176.78;5109967;28;20050;-76
2021/01/28 07:28:48;;;;;;;15.50;10.88;;;;;;;2.09;52.09;99179.28;5107007;28;20028;-76
2021/01/28 07:31:49;;;;;;;15.03;10.13;;;;;;;2.07;50.89;99165.56;5091000;28;20449;-75
2021/01/28 07:34:15;;;;;;;17.43;11.63;;;;;;;2.09;51.58;99166.25;5099821;28;20031;-76
2021/01/28 07:36:44;;;;;;;14.73;10.63;;;;;;;2.08;51.06;99172.41;5093687;28;20031;-76
2021/01/28 07:39:33;;;;;;;14.50;10.47;;;;;;;2.12;51.09;99179.00;5111337;22;20056;-75
2021/01/28 07:42:30;;;;;;;14.80;10.67;;;;;;;2.13;51.06;99183.25;5080241;28;20044;-75
2021/01/28 07:44:58;;;;;;;17.63;11.00;;;;;;;2.12;51.60;99185.03;5072699;28;20045;-76
2021/01/28 07:47:29;;;;;;;17.43;10.53;;;;;;;2.19;50.85;99191.34;5076674;28;20017;-78
2021/01/28 07:50:19;;;;;;;14.90;9.80;;;;;;;2.18;51.01;99188.88;5096505;22;20044;-76
2021/01/28 07:52:46;;;;;;;14.50;10.00;;;;;;;2.19;51.17;99190.53;5098775;28;20112;-75
2021/01/28 07:55:44;;;;;;;18.07;10.80;;;;;;;2.04;50.89;99163.22;5104138;28;20020;-77
2021/01/28 07:58:20;;;;;;;13.60;9.87;;;;;;;2.21;50.99;99186.00;5103626;28;20040;-75
2021/01/28 08:00:47;;;;;;;12.00;9.57;;;;;;;2.28;51.30;99188.94;5100337;28;20042;-76
2021/01/28 08:03:28;;;;;;;13.13;9.50;;;;;;;1.76;50.51;99110.13;5095376;28;20043;-76
2021/01/28 08:05:55;;;;;;;13.87;9.37;;;;;;;2.15;51.09;99189.97;5113533;28;20438;-75
2021/01/28 08:08:21;;;;;;;13.50;10.03;;;;;;;1.80;51.35;99138.34;5090348;28;20055;-75
2021/01/28 08:10:47;;;;;;;13.30;9.83;;;;;;;2.19;51.47;99175.72;5102642;28;20023;-75
2021/01/28 08:13:30;;;;;;;15.93;11.17;;;;;;;2.29;51.03;99187.97;5114462;28;20039;-79
2021/01/28 08:16:06;;;;;;;13.30;10.10;;;;;;;2.12;51.09;99145.16;5101647;22;20041;-76
2021/01/28 08:18:40;;;;;;;11.47;7.80;;;;;;;2.17;50.62;99162.03;5095403;28;20109;-75
2021/01/28 08:21:28;;;;;;;12.33;8.93;;;;;;;1.66;50.71;99078.06;5100774;28;20051;-76
2021/01/28 08:23:54;;;;;;;14.00;9.40;;;;;;;2.42;51.22;99204.19;5086118;28;20397;-78
2021/01/28 08:26:28;;;;;;;13.37;9.17;;;;;;;2.51;50.47;99199.00;5090247;28;20028;-76
2021/01/28 08:29:15;;;;;;;14.47;8.97;;;;;;;2.54;50.70;99193.50;5098509;28;20028;-75
2021/01/28 08:31:45;;;;;;;15.77;9.80;;;;;;;2.50;50.68;99189.53;5089432;28;20054;-78
2021/01/28 08:34:16;;;;;;;14.87;10.57;;;;;;;2.59;50.51;99200.09;5087658;28;20032;-74
2021/01/28 08:37:03;;;;;;;17.27;10.70;;;;;;;2.23;50.71;99138.06;5086699;28;20392;-77
2021/01/28 08:39:36;;;;;;;16.10;10.13;;;;;;;2.58;51.02;99195.84;5086304;28;20036;-75
2021/01/28 08:42:02;;;;;;;19.97;11.87;;;;;;;2.65;50.82;99195.16;5084040;28;20123;-76
2021/01/28 08:44:27;;;;;;;18.90;11.83;;;;;;;2.06;50.57;99102.25;5073785;28;20056;-76
2021/01/28 08:47:16;;;;;;;16.87;11.30;;;;;;;2.69;51.03;99185.28;5080769;28;20028;-77
2021/01/28 08:49:47;;;;;;;23.03;13.13;;;;;;;1.78;50.70;99040.53;5087607;28;20024;-75
2021/01/28 08:52:19;;;;;;;16.53;10.80;;;;;;;2.49;50.92;99138.38;5086026;28;20427;-76
2021/01/28 08:54:46;;;;;;;15.47;10.13;;;;;;;2.07;50.71;99077.84;5083452;28;20024;-76
2021/01/28 08:57:18;;;;;;;11.43;8.43;;;;;;;2.66;50.74;99172.53;5100876;22;20071;-76
2021/01/28 08:59:48;;;;;;;11.50;8.75;;;;;;;2.98;50.96;99214.81;5090519;28;20060;-76
2021/01/28 09:02:18;;;;;;;14.33;9.83;;;;;;;3.05;50.39;99210.69;5121850;22;20362;-77
2021/01/28 09:04:54;;;;;;;13.30;9.20;;;;;;;2.75;50.62;99148.25;5137747;22;20063;-77
2021/01/28 09:07:58;;;;;;;13.30;10.43;;;;;;;3.15;50.22;99206.28;5120249;22;20074;-77
2021/01/28 09:10:39;;;;;;;12.27;8.23;;;;;;;3.12;50.79;99211.78;5102056;28;20059;-78
2021/01/28 09:13:15;;;;;;;10.45;8.10;;;;;;;3.17;51.07;99212.19;5097428;28;20028;-77
2021/01/28 09:15:41;;;;;;;13.43;8.67;;;;;;;3.13;50.96;99207.38;5089370;28;20039;-78
2021/01/28 09:18:13;;;;;;;10.67;8.33;;;;;;;3.20;51.05;99192.81;5093170;22;20049;-76
2021/01/28 09:20:41;;;;;;;12.60;8.45;;;;;;;3.47;50.50;99216.41;5092389;28;20039;-76
2021/01/28 09:23:15;;;;;;;11.50;9.30;;;;;;;3.60;50.38;99220.47;5079455;28;20048;-78
2021/01/28 09:25:43;;;;;;;12.23;8.90;;;;;;;3.62;50.29;99215.94;5094511;28;20393;-77
2021/01/28 09:28:30;;;;;;;11.30;7.90;;;;;;;3.61;50.07;99228.19;5086164;28;20040;-77
2021/01/28 09:30:55;;;;;;;10.10;7.40;;;;;;;3.44;49.96;99194.97;5082029;28;20035;-77
2021/01/28 09:33:27;;;;;;;9.30;7.70;;;;;;;3.72;50.18;99219.38;5087534;28;20396;-77
2021/01/28 09:36:12;;;;;;;10.93;8.13;;;;;;;3.05;49.45;99097.72;5085175;28;20050;-77
2021/01/28 09:41:12;;;;;;;9.38;7.32;;;;;;;3.92;49.48;99215.72;5132869;22;20059;-77
2021/01/28 09:43:37;;;;;;;11.03;7.83;;;;;;;2.80;49.50;99018.31;5098420;22;20052;-78
2021/01/28 09:46:05;;;;;;;10.50;8.70;;;;;;;4.07;49.38;99208.25;5104995;28;20032;-76
2021/01/28 09:48:31;;;;;;;10.83;8.13;;;;;;;3.79;49.19;99169.06;5110504;22;20052;-77
2021/01/28 09:50:57;;;;;;;13.50;8.97;;;;;;;3.26;49.05;99068.81;5118436;22;20103;-76
2021/01/28 09:53:22;;;;;;;12.43;8.33;;;;;;;4.09;49.73;99190.63;5091004;28;20066;-77
2021/01/28 09:55:51;;;;;;;12.50;9.67;;;;;;;4.07;49.52;99171.66;5090687;22;20048;-76
2021/01/28 09:58:19;;;;;;;17.40;12.13;;;;;;;4.25;49.34;99201.28;5091371;28;20038;-77
2021/01/28 10:00:46;;;;;;;10.67;8.00;;;;;;;4.33;49.38;99200.53;5093109;22;20066;-77
2021/01/28 10:03:15;;;;;;;11.60;8.83;;;;;;;4.20;48.63;99174.75;5104386;28;20084;-77
2021/01/28 10:05:40;;;;;;;11.17;8.83;;;;;;;4.28;49.16;99177.47;5109224;28;20065;-77
2021/01/28 10:08:09;;;;;;;12.20;8.47;;;;;;;4.06;48.94;99112.56;5113987;28;20055;-77
2021/01/28 10:10:38;;;;;;;10.20;8.13;;;;;;;4.61;48.64;99196.13;5117830;28;20437;-78
2021/01/28 10:13:07;;;;;;;9.50;7.37;;;;;;;4.33;48.60;99145.66;5111093;28;20023;-76
2021/01/28 10:15:32;;;;;;;9.47;6.80;;;;;;;4.41;47.91;99143.13;5111378;28;20020;-77
2021/01/28 10:18:01;;;;;;;9.07;7.27;;;;;;;4.32;48.00;99134.38;5111797;28;20027;-77
2021/01/28 10:20:27;;;;;;;8.83;6.97;;;;;;;4.80;47.71;99198.59;5116609;28;20391;-77
2021/01/28 10:22:57;;;;;;;10.00;7.33;;;;;;;4.44;47.44;99133.19;5113387;28;20102;-78
2021/01/28 10:25:23;;;;;;;9.80;6.90;;;;;;;4.04;47.50;99072.69;5106479;28;20028;-76
2021/01/28 10:27:50;;;;;;;8.93;7.00;;;;;;;4.44;47.42;99132.38;5120579;22;20104;-77
2021/01/28 10:30:17;;;;;;;16.43;10.50;;;;;;;4.87;47.22;99183.94;5117340;28;20059;-75
2021/01/28 10:32:48;;;;;;;10.80;8.07;;;;;;;5.00;46.45;99191.41;5109775;27;20032;-77
2021/01/28 10:35:21;;;;;;;10.90;8.07;;;;;;;4.56;46.22;99138.22;5110671;27;20073;-76
2021/01/28 10:37:46;;;;;;;11.33;8.37;;;;;;;4.87;47.06;99188.34;5114000;22;20047;-76
2021/01/28 10:40:14;;;;;;;10.43;8.40;;;;;;;4.86;46.64;99177.06;5099235;28;20032;-76
2021/01/28 10:42:42;;;;;;;10.37;6.50;;;;;;;3.53;46.38;98977.50;5085101;28;20118;-76
2021/01/28 10:45:14;;;;;;;8.07;6.97;;;;;;;4.79;46.65;99184.69;5102108;28;20031;-76
2021/01/28 10:47:40;;;;;;;8.13;7.03;;;;;;;4.80;46.95;99180.28;5103665;28;20032;-77
2021/01/28 10:50:57;;;;;;;9.37;6.17;;;;;;;4.86;46.20;99192.75;5108328;22;20132;-77
2021/01/28 10:53:22;;;;;;;6.83;5.93;;;;;;;4.84;46.38;99188.66;5105457;28;20441;-77
2021/01/28 10:55:49;;;;;;;8.00;6.43;;;;;;;4.32;46.63;99091.75;5112788;28;20034;-77
2021/01/28 11:01:42;;;;;;;8.43;6.57;;;;;;;4.74;46.61;99173.84;5116383;28;20112;-77
2021/01/28 11:06:43;;;;;;;8.80;6.53;;;;;;;4.74;46.98;99176.47;4386978;25;20048;-76
2021/01/28 11:09:14;;;;;;;10.17;7.47;;;;;;;4.82;46.47;99183.56;5100827;22;20059;-77
2021/01/28 11:11:39;;;;;;;11.03;8.37;;;;;;;4.70;46.55;99179.53;5110058;27;20437;-76
2021/01/28 11:14:06;;;;;;;10.73;8.43;;;;;;;4.70;46.60;99164.66;5109354;28;20349;-77
2021/01/28 11:16:34;;;;;;;10.43;7.60;;;;;;;4.68;46.71;99163.19;5101783;28;20422;-76
2021/01/28 11:19:01;;;;;;;9.47;7.33;;;;;;;4.80;46.62;99180.28;5091321;28;20349;-76
2021/01/28 11:21:26;;;;;;;11.73;8.60;;;;;;;4.67;46.40;99177.22;5102504;22;20108;-77
2021/01/28 11:23:52;;;;;;;9.67;8.23;;;;;;;4.53;46.61;99139.34;5091469;28;20127;-77
2021/01/28 11:26:17;;;;;;;9.40;6.90;;;;;;;4.73;47.15;99171.38;5120125;22;20041;-77
2021/01/28 11:28:43;;;;;;;13.17;10.00;;;;;;;4.57;46.40;99139.88;5092704;28;20043;-76
2021/01/28 11:31:08;;;;;;;11.67;8.07;;;;;;;4.39;46.98;99108.47;5114455;22;20434;-77
2021/01/28 11:33:34;;;;;;;9.17;7.50;;;;;;;4.76;46.86;99158.03;5105774;22;20052;-78
2021/01/28 11:36:01;;;;;;;11.53;8.00;;;;;;;4.65;46.49;99164.28;5086142;28;20111;-77
2021/01/28 11:38:28;;;;;;;11.30;7.97;;;;;;;4.28;46.52;99112.13;5084340;28;20025;-77
2021/01/28 11:40:55;;;;;;;11.73;8.10;;;;;;;4.65;46.27;99155.63;5079143;28;20039;-77
2021/01/28 11:43:21;;;;;;;11.30;7.23;;;;;;;4.24;46.41;99091.66;5083365;28;20032;-77
2021/01/28 11:45:46;;;;;;;10.90;7.50;;;;;;;4.74;46.56;99157.34;5091670;28;20035;-77
2021/01/28 11:48:12;;;;;;;11.57;8.33;;;;;;;4.44;46.31;99111.47;5116212;22;20031;-77
2021/01/28 11:50:38;;;;;;;10.47;7.00;;;;;;;4.75;46.45;99149.34;5116248;28;20038;-77
2021/01/28 11:53:04;;;;;;;10.30;7.87;;;;;;;4.44;46.14;99090.53;5115981;28;20043;-77
2021/01/28 11:55:32;;;;;;;11.83;8.53;;;;;;;4.83;46.50;99147.78;5110032;28;20038;-77
2021/01/28 11:57:59;;;;;;;11.10;8.00;;;;;;;4.87;46.58;99146.50;5101704;28;20020;-77
2021/01/28 12:00:28;;;;;;;11.07;8.03;;;;;;;4.76;46.54;99131.88;5105074;22;20149;-77
2021/01/28 12:02:53;;;;;;;10.37;7.93;;;;;;;4.42;46.58;99080.25;5083100;28;20059;-77
2021/01/28 12:05:23;;;;;;;10.63;7.70;;;;;;;4.78;46.35;99141.19;5085706;22;20390;-77
2021/01/28 12:07:50;;;;;;;9.73;8.00;;;;;;;4.40;46.21;99094.44;5085412;22;20052;-77
2021/01/28 12:10:40;;;;;;;9.03;6.93;;;;;;;4.78;46.09;99149.03;5087279;22;20050;-78
2021/01/28 12:13:14;;;;;;;8.17;6.50;;;;;;;4.73;45.44;99163.53;5078583;28;20068;-79
2021/01/28 12:15:42;;;;;;;7.53;6.13;;;;;;;4.54;45.99;99114.03;5069140;28;20177;-76
2021/01/28 12:18:08;;;;;;;7.83;5.97;;;;;;;4.75;45.83;99145.91;5089880;22;20041;-78
2021/01/28 12:20:34;;;;;;;7.80;6.50;;;;;;;3.10;46.02;98931.19;5118719;22;20059;-77
2021/01/28 12:25:35;;;;;;;7.05;6.22;;;;;;;4.30;45.93;99073.59;5181600;22;20051;-76
2021/01/28 12:28:25;;;;;;;8.10;5.90;;;;;;;3.02;45.91;98845.88;5100531;22;20061;-77
2021/01/28 12:30:52;;;;;;;8.27;6.77;;;;;;;4.29;45.81;99058.91;5103431;28;20092;-78
2021/01/28 12:33:18;;;;;;;9.37;7.33;;;;;;;4.92;46.35;99147.69;5074137;28;20036;-78
2021/01/28 12:35:44;;;;;;;7.47;5.60;;;;;;;4.93;46.48;99138.03;5066589;28;20339;-76
2021/01/28 12:38:10;;;;;;;7.80;6.37;;;;;;;4.29;46.50;99037.16;5084540;28;20020;-76
2021/01/28 12:40:35;;;;;;;8.87;6.37;;;;;;;4.96;46.89;99156.88;5081080;28;20030;-76
2021/01/28 12:45:27;;;;;;;11.13;7.25;;;;;;;4.79;46.10;99140.22;5139017;22;20048;-77
2021/01/28 12:47:54;;;;;;;7.97;5.77;;;;;;;4.86;45.60;99137.81;5122755;22;20361;-78
2021/01/28 12:50:22;;;;;;;9.80;6.53;;;;;;;4.83;45.83;99139.94;5120353;22;20048;-80
2021/01/28 12:52:50;;;;;;;7.60;6.00;;;;;;;4.61;45.33;99099.38;5080697;28;20032;-77
2021/01/28 12:55:16;;;;;;;8.97;6.00;;;;;;;4.77;45.32;99134.31;5086839;28;20040;-78
2021/01/28 12:57:43;;;;;;;12.90;8.27;;;;;;;4.64;45.33;99106.91;5089585;28;20050;-76
2021/01/28 13:00:15;;;;;;;12.33;7.73;;;;;;;4.97;45.87;99149.84;5067354;28;20441;-77
2021/01/28 13:02:46;;;;;;;7.90;6.68;;;;;;;4.96;46.02;99135.94;5099158;22;20074;-78
2021/01/28 13:07:48;;;;;;;10.43;6.90;;;;;;;5.06;45.95;99152.38;4334204;26;20048;-79
2021/01/28 13:10:15;;;;;;;11.27;7.33;;;;;;;4.38;45.35;99068.44;5125466;22;20050;-78
2021/01/28 13:12:43;;;;;;;10.67;8.43;;;;;;;4.68;46.22;99129.19;5109227;22;20043;-78
2021/01/28 13:17:41;;;;;;;12.50;9.10;;;;;;;4.44;46.04;99116.69;5122740;28;20449;-79
2021/01/28 13:22:42;;;;;;;10.37;7.63;;;;;;;4.67;46.21;99140.63;4198889;26;20062;-78
2021/01/28 13:25:11;;;;;;;10.20;7.13;;;;;;;4.83;46.35;99172.13;5134510;22;20051;-77
2021/01/28 13:27:38;;;;;;;9.67;7.40;;;;;;;4.19;46.75;99115.63;5125009;22;20036;-78
2021/01/28 13:30:06;;;;;;;9.20;6.60;;;;;;;4.55;45.96;99149.66;5102935;28;20036;-76
2021/01/28 13:32:34;;;;;;;9.33;7.03;;;;;;;4.71;46.43;99175.94;5081878;28;20031;-77
2021/01/28 13:35:00;;;;;;;10.83;8.03;;;;;;;4.71;46.95;99171.53;5112016;28;20353;-78
2021/01/28 13:37:27;;;;;;;9.47;6.77;;;;;;;4.62;46.48;99161.16;5089286;28;20119;-78
2021/01/28 13:39:52;;;;;;;11.23;7.77;;;;;;;4.34;46.59;99115.94;5115181;28;20460;-78
2021/01/28 13:42:17;;;;;;;12.63;8.10;;;;;;;4.69;46.80;99170.06;5119054;22;20057;-78
2021/01/28 13:44:43;;;;;;;8.10;5.80;;;;;;;3.30;46.40;98969.25;5136965;22;20040;-79
2021/01/28 13:47:08;;;;;;;10.57;7.27;;;;;;;4.56;46.72;99193.94;5092060;28;20031;-77
2021/01/28 13:49:34;;;;;;;9.07;6.10;;;;;;;4.60;46.10;99179.63;5099053;22;20036;-78
2021/01/28 13:54:25;;;;;;;9.75;6.43;;;;;;;4.46;46.92;99164.44;5158208;22;20083;-79
2021/01/28 13:56:57;;;;;;;10.03;6.27;;;;;;;4.61;47.09;99177.81;5095422;28;20036;-79
2021/01/28 13:59:22;;;;;;;8.10;5.68;;;;;;;4.64;46.84;99177.53;5079359;28;20039;-76
2021/01/28 14:01:48;;;;;;;8.03;6.50;;;;;;;4.56;46.82;99185.28;5069023;28;20350;-77
2021/01/28 14:04:13;;;;;;;10.13;7.33;;;;;;;4.11;47.04;99100.69;5119001;22;20096;-78
2021/01/28 14:06:38;;;;;;;13.97;8.70;;;;;;;4.10;47.24;99090.41;5131431;22;20047;-79
2021/01/28 14:09:08;;;;;;;15.10;9.30;;;;;;;4.51;47.17;99149.13;5152581;22;20035;-79
2021/01/28 14:11:33;;;;;;;11.27;8.20;;;;;;;4.61;47.32;99172.59;5146855;22;20069;-77
2021/01/28 14:14:02;;;;;;;10.33;7.73;;;;;;;4.60;47.20;99169.16;5120410;28;20031;-78
2021/01/28 14:16:28;;;;;;;12.90;8.37;;;;;;;4.58;47.54;99165.03;5118555;28;20096;-77
2021/01/28 14:19:06;;;;;;;13.73;9.10;;;;;;;1.85;47.66;98729.31;5114745;22;20434;-78
2021/01/28 14:21:33;;;;;;;13.07;8.43;;;;;;;4.55;48.27;99160.94;5132572;22;20044;-78
2021/01/28 14:24:00;;;;;;;13.20;9.27;;;;;;;4.17;47.77;99101.06;5124106;22;20074;-78
2021/01/28 14:29:23;;;;;;;16.70;10.97;;;;;;;4.51;48.13;99162.19;3680665;22;20073;-79
2021/01/28 14:31:50;;;;;;;16.83;10.90;;;;;;;4.15;48.40;99107.25;5092132;22;20115;-78
2021/01/28 14:36:47;;;;;;;;;;;;;;;4.32;48.78;99168.34;5140378;22;21636;-79
2021/01/28 14:44:24;;;;;;;15.00;9.23;;;;;;;3.88;48.99;99090.81;5040904;26;20040;-78
2021/01/28 14:49:33;;;;;;;22.80;13.93;;;;;;;3.88;48.98;99093.41;5142564;22;20047;-77
2021/01/28 14:51:59;;;;;;;28.73;16.37;;;;;;;4.05;49.49;99137.84;5092991;28;20056;-78
2021/01/28 14:54:25;;;;;;;22.30;15.47;;;;;;;4.32;49.49;99167.53;5134630;22;20059;-80
2021/01/28 15:04:36;;;;;;;15.97;11.30;;;;;;;4.21;49.96;99173.78;5110194;28;20051;-77
2021/01/28 15:07:03;;;;;;;15.93;10.97;;;;;;;2.42;49.74;98884.56;5112721;22;20051;-79
2021/01/28 15:12:14;;;;;;;24.03;15.03;;;;;;;4.23;49.98;99184.09;5121394;22;20060;-78
2021/01/28 15:14:41;;;;;;;15.53;11.83;;;;;;;3.06;49.82;98998.47;5115324;22;20034;-79
2021/01/28 15:17:16;;;;;;;17.40;12.13;;;;;;;4.05;49.86;99169.19;5131067;22;20056;-79
2021/01/28 15:19:42;;;;;;;15.23;10.47;;;;;;;3.63;50.38;99100.13;5113079;28;20529;-79
2021/01/28 15:22:09;;;;;;;16.10;12.10;;;;;;;4.14;50.07;99197.06;5122423;28;20039;-79
2021/01/28 15:24:41;;;;;;;20.60;13.97;;;;;;;3.30;49.88;99044.91;5112234;28;20036;-79
2021/01/28 15:27:09;;;;;;;25.20;15.40;;;;;;;3.69;49.70;99123.84;5118223;22;20040;-79
2021/01/28 15:29:44;;;;;;;45.87;25.13;;;;;;;3.07;49.60;99000.13;5130439;22;20070;-78
2021/01/28 15:32:30;;;;;;;38.00;23.00;;;;;;;3.85;49.79;99130.28;5094822;22;20071;-78
2021/01/28 15:35:02;;;;;;;34.27;20.30;;;;;;;4.07;49.96;99171.66;5120263;22;20076;-78
2021/01/28 15:37:28;;;;;;;;;;;;;;;4.03;49.80;99186.00;5129951;22;20465;-79
2021/01/28 15:40:02;;;;;;;34.63;20.83;;;;;;;2.73;50.34;99012.84;5080352;28;19919;-79
2021/01/28 15:42:33;;;;;;;41.80;24.23;;;;;;;3.68;50.20;99140.50;5113098;22;20440;-79
2021/01/28 15:45:00;;;;;;;36.20;21.38;;;;;;;4.02;50.23;99194.78;5102098;22;20048;-79
2021/01/28 15:47:25;;;;;;;33.23;19.97;;;;;;;3.62;50.23;99164.56;5118577;22;20055;-79
2021/01/28 15:50:02;;;;;;;35.93;20.17;;;;;;;3.97;50.35;99199.63;5126906;22;20036;-78
2021/01/28 15:52:27;;;;;;;40.07;21.60;;;;;;;3.96;50.75;99196.19;5130218;22;20043;-78
2021/01/28 15:54:53;;;;;;;40.13;25.07;;;;;;;3.91;50.77;99195.81;5094478;28;20015;-77
2021/01/28 15:57:18;;;;;;;54.37;31.13;;;;;;;3.49;50.48;99130.13;5099261;28;20043;-77
2021/01/28 15:59:44;;;;;;;70.10;39.37;;;;;;;3.63;50.71;99147.94;5122152;28;20036;-77
2021/01/28 16:02:10;;;;;;;59.07;35.00;;;;;;;3.78;50.98;99172.63;5099606;28;20429;-77
2021/01/28 16:04:36;;;;;;;85.83;48.57;;;;;;;3.18;51.04;99095.63;5108397;28;20031;-77
2021/01/28 16:07:02;;;;;;;79.97;46.00;;;;;;;3.81;51.23;99208.91;5120509;22;20059;-77
2021/01/28 16:09:27;;;;;;;79.30;43.30;;;;;;;3.57;51.62;99171.19;5104795;28;21416;-77
2021/01/28 16:11:52;;;;;;;86.67;45.07;;;;;;;3.41;51.58;99151.72;5113200;28;20096;-79
2021/01/28 16:14:19;;;;;;;77.93;38.57;;;;;;;3.70;51.67;99214.28;5100555;28;20356;-77
2021/01/28 16:16:45;;;;;;;92.13;42.53;;;;;;;3.43;51.48;99185.50;5126723;28;20032;-77
2021/01/28 16:19:10;;;;;;;85.77;41.40;;;;;;;3.68;51.95;99212.78;5086029;28;20093;-78
2021/01/28 16:21:36;;;;;;;90.73;46.43;;;;;;;3.65;51.90;99213.88;5104320;28;20081;-78
2021/01/28 16:24:02;;;;;;;84.63;45.63;;;;;;;3.54;52.20;99219.25;5123344;28;20059;-77
2021/01/28 16:26:27;;;;;;;84.03;47.77;;;;;;;3.52;52.00;99215.97;5123103;28;20035;-77
2021/01/28 16:28:53;;;;;;;86.40;50.07;;;;;;;3.56;52.49;99230.38;5123407;28;20019;-77
2021/01/28 16:31:20;;;;;;;85.63;48.20;;;;;;;3.53;52.20;99225.44;5123116;28;20111;-78
2021/01/28 16:33:45;;;;;;;86.13;47.27;;;;;;;3.42;52.25;99213.38;5123390;28;20352;-78
2021/01/28 16:36:13;;;;;;;85.30;47.23;;;;;;;3.50;52.78;99233.56;5124059;28;20169;-77
2021/01/28 16:38:39;;;;;;;87.50;47.77;;;;;;;3.47;52.97;99241.66;5132130;22;20040;-78
2021/01/28 16:41:05;;;;;;;88.93;52.60;;;;;;;3.46;53.46;99245.25;5106441;28;20027;-78
2021/01/28 16:43:30;;;;;;;85.67;53.37;;;;;;;3.43;53.52;99240.31;5124382;28;20024;-78
2021/01/28 16:45:55;;;;;;;73.23;42.70;;;;;;;3.38;53.54;99245.13;5123872;28;20498;-78
2021/01/28 16:48:21;;;;;;;88.57;49.00;;;;;;;3.21;53.36;99241.44;5123823;28;20028;-78
2021/01/28 16:50:47;;;;;;;86.73;52.30;;;;;;;3.23;54.17;99236.91;5123890;28;20416;-78
2021/01/28 16:53:15;;;;;;;76.90;47.50;;;;;;;3.25;54.10;99265.47;5125033;28;20039;-78
2021/01/28 16:55:41;;;;;;;114.60;67.47;;;;;;;3.11;54.44;99238.84;5124721;28;20011;-77
2021/01/28 16:58:09;;;;;;;122.77;71.40;;;;;;;3.07;54.73;99231.41;5106989;28;20058;-77
2021/01/28 17:00:35;;;;;;;131.50;74.20;;;;;;;3.02;54.81;99226.63;5124682;28;20023;-77
2021/01/28 17:03:00;;;;;;;131.23;74.67;;;;;;;2.99;54.52;99232.09;5124661;28;20034;-78
2021/01/28 17:05:26;;;;;;;134.07;75.17;;;;;;;2.96;54.57;99252.38;5123350;28;20352;-77
2021/01/28 17:07:52;;;;;;;142.83;81.07;;;;;;;2.85;54.91;99253.34;5102081;28;20059;-78
2021/01/28 17:10:19;;;;;;;140.60;80.90;;;;;;;2.69;55.18;99237.41;5101542;28;20028;-78
2021/01/28 17:12:45;;;;;;;137.93;79.37;;;;;;;2.74;55.48;99254.28;5101777;28;20497;-78
2021/01/28 17:15:13;;;;;;;138.93;79.00;;;;;;;2.75;55.10;99255.94;5103061;28;20016;-78
2021/01/28 17:17:43;;;;;;;138.93;80.77;;;;;;;2.75;55.57;99260.34;5111512;22;20058;-77
2021/01/28 17:20:10;;;;;;;161.83;90.10;;;;;;;2.42;55.40;99212.00;5103420;28;20036;-77
2021/01/28 17:22:36;;;;;;;166.53;92.67;;;;;;;2.48;56.01;99224.50;5089740;28;20024;-77
2021/01/28 17:25:03;;;;;;;165.43;94.87;;;;;;;2.69;55.64;99266.09;5102551;28;20099;-78
2021/01/28 17:27:28;;;;;;;168.87;97.77;;;;;;;2.47;56.01;99236.69;5103191;28;20039;-78
2021/01/28 17:29:54;;;;;;;177.90;91.07;;;;;;;2.63;55.39;99270.06;5103678;28;20024;-78
2021/01/28 17:32:19;;;;;;;116.37;60.73;;;;;;;2.58;55.14;99268.81;5103412;28;20058;-78
2021/01/28 17:34:44;;;;;;;118.23;62.03;;;;;;;2.33;55.05;99239.69;5102442;28;20104;-78
2021/01/28 17:37:10;;;;;;;121.33;63.43;;;;;;;1.92;55.30;99219.78;5103854;28;20035;-77
2021/01/28 17:39:35;;;;;;;117.87;66.13;;;;;;;2.19;55.29;99268.66;5102486;28;20032;-78
2021/01/28 17:42:01;;;;;;;119.57;67.50;;;;;;;2.25;55.51;99262.13;5101433;28;20035;-77
2021/01/28 17:44:28;;;;;;;115.83;64.80;;;;;;;2.16;55.29;99256.72;5101091;28;20162;-77
2021/01/28 17:46:53;;;;;;;110.33;63.17;;;;;;;1.75;55.62;99184.78;5101808;28;20440;-78
2021/01/28 17:49:20;;;;;;;121.20;67.50;;;;;;;1.74;55.64;99182.31;5102271;28;20024;-78
2021/01/28 17:51:46;;;;;;;150.37;82.60;;;;;;;2.17;56.13;99262.75;5100854;28;20028;-77
2021/01/28 17:54:13;;;;;;;167.37;92.47;;;;;;;2.07;56.14;99254.09;5084391;28;20023;-77
2021/01/28 17:56:39;;;;;;;166.03;90.37;;;;;;;1.85;55.80;99211.66;5104178;22;20461;-78
2021/01/28 17:59:07;;;;;;;159.37;89.00;;;;;;;1.84;56.15;99206.59;5083819;28;20028;-78
2021/01/28 18:01:33;;;;;;;158.60;88.83;;;;;;;1.97;56.15;99222.81;5083504;28;20027;-78
2021/01/28 18:03:58;;;;;;;166.73;97.97;;;;;;;2.11;55.93;99250.28;5082332;28;20024;-79
2021/01/28 18:06:25;;;;;;;147.97;87.37;;;;;;;2.08;55.92;99242.72;5083666;28;20032;-77
2021/01/28 18:08:50;;;;;;;147.27;86.73;;;;;;;1.64;56.11;99187.47;5084965;28;20025;-78
2021/01/28 18:11:16;;;;;;;139.93;80.80;;;;;;;1.74;56.20;99193.53;5081983;28;20032;-78
2021/01/28 18:13:42;;;;;;;131.37;77.93;;;;;;;2.03;56.00;99240.50;5080117;28;21744;-77
2021/01/28 18:16:08;;;;;;;128.50;75.27;;;;;;;2.00;55.91;99242.56;5072057;22;20042;-78
2021/01/28 18:18:33;;;;;;;124.73;74.10;;;;;;;2.00;55.87;99252.97;5035449;28;20338;-79
2021/01/28 18:21:00;;;;;;;116.93;68.30;;;;;;;2.00;55.83;99247.75;5095012;23;20066;-78
2021/01/28 18:23:25;;;;;;;115.53;64.43;;;;;;;1.94;55.79;99249.09;5109176;22;20093;-78
2021/01/28 18:25:52;;;;;;;107.63;61.13;;;;;;;1.77;55.10;99247.94;5114300;22;20113;-76
2021/01/28 18:28:28;;;;;;;101.87;56.73;;;;;;;1.33;55.43;99185.78;5124998;28;20043;-78
2021/01/28 18:31:00;;;;;;;95.57;54.57;;;;;;;1.75;55.56;99262.03;5109017;28;20115;-78
2021/01/28 18:33:26;;;;;;;82.93;50.17;;;;;;;1.70;55.63;99259.81;5110112;22;20043;-79
2021/01/28 18:35:52;;;;;;;79.07;47.20;;;;;;;1.68;55.45;99253.91;5157031;22;20113;-78
2021/01/28 18:38:29;;;;;;;83.10;48.60;;;;;;;1.14;55.39;99168.28;5144108;22;20100;-78
2021/01/28 18:40:55;;;;;;;80.80;48.70;;;;;;;1.70;55.54;99253.78;5110080;22;20055;-79
2021/01/28 18:43:25;;;;;;;72.50;44.73;;;;;;;1.69;55.38;99254.75;5129538;28;20157;-79
2021/01/28 18:45:55;;;;;;;70.37;44.27;;;;;;;1.40;55.63;99215.53;5119390;28;20154;-79
2021/01/28 18:48:21;;;;;;;68.60;41.07;;;;;;;1.67;55.34;99248.84;5126478;22;20047;-78
2021/01/28 18:50:48;;;;;;;64.07;39.93;;;;;;;1.51;55.47;99218.09;5116769;22;20043;-78
2021/01/28 18:53:14;;;;;;;64.07;40.67;;;;;;;1.56;55.46;99234.13;5069947;28;20445;-79
2021/01/28 18:58:10;;;;;;;65.63;39.00;;;;;;;1.63;55.28;99250.88;5100135;28;20055;-76
2021/01/28 19:00:36;;;;;;;70.30;41.60;;;;;;;1.56;55.25;99242.75;5072496;28;20040;-79
2021/01/28 19:03:03;;;;;;;76.43;47.77;;;;;;;1.49;55.09;99243.41;5099199;22;20100;-78
2021/01/28 19:05:29;;;;;;;69.87;42.63;;;;;;;1.56;55.29;99253.16;5119646;28;20350;-77
2021/01/28 19:07:55;;;;;;;67.10;41.23;;;;;;;1.54;55.37;99257.69;5107224;28;20036;-78
2021/01/28 19:13:02;;;;;;;71.30;42.17;;;;;;;1.52;55.28;99263.97;4224191;22;20045;-78
2021/01/28 19:15:36;;;;;;;82.68;49.85;;;;;;;1.21;55.41;99224.03;5101232;23;20052;-79
2021/01/28 19:18:04;;;;;;;79.17;44.83;;;;;;;1.06;55.17;99207.09;5109350;28;20040;-79
2021/01/28 19:20:35;;;;;;;73.17;43.23;;;;;;;1.53;55.21;99269.03;5125556;22;20071;-77
2021/01/28 19:23:11;;;;;;;76.40;44.57;;;;;;;1.52;55.22;99267.38;5110832;22;20120;-78
2021/01/28 19:25:39;;;;;;;67.10;42.67;;;;;;;1.51;55.20;99263.13;5117846;22;20036;-78
2021/01/28 19:28:07;;;;;;;75.53;44.27;;;;;;;1.49;55.15;99254.63;5104033;23;20116;-79
2021/01/28 19:32:59;;;;;;;84.80;48.35;;;;;;;1.17;55.15;99215.66;5153681;22;20102;-77
2021/01/28 19:35:32;;;;;;;82.47;47.60;;;;;;;1.51;55.15;99264.91;5071756;28;20395;-79
2021/01/28 19:37:59;;;;;;;84.97;49.07;;;;;;;1.52;54.78;99271.75;5102166;23;20165;-79